createdAt,value
2023-05-20T00:02:05.359Z,82.63
2023-05-20T00:05:10.795Z,82.85
2023-05-20T00:08:13.333Z,83.77
2023-05-20T00:11:16.019Z,84.27
2023-05-20T00:14:18.418Z,84.69
2023-05-20T00:17:21.203Z,84.09
2023-05-20T00:20:23.780Z,83.83
2023-05-20T00:23:27.566Z,84.00
2023-05-20T00:26:30.109Z,84.85
2023-05-20T00:29:34.066Z,85.19
2023-05-20T00:32:36.571Z,84.51
2023-05-20T00:35:39.331Z,84.93
2023-05-20T00:38:42.042Z,85.09
2023-05-20T00:41:44.832Z,84.58
2023-05-20T00:44:49.660Z,84.89
2023-05-20T00:47:52.683Z,85.63
2023-05-20T00:50:55.171Z,85.85
2023-05-20T00:53:58.736Z,85.71
2023-05-20T00:57:03.232Z,86.00
2023-05-20T01:00:08.398Z,84.92
2023-05-20T01:03:11.865Z,85.74
2023-05-20T01:06:14.664Z,84.89
2023-05-20T01:09:17.035Z,85.87
2023-05-20T01:12:28.301Z,86.28
2023-05-20T01:15:31.965Z,85.96
2023-05-20T01:18:35.881Z,85.29
2023-05-20T01:21:40.481Z,85.82
2023-05-20T01:24:45.134Z,86.01
2023-05-20T01:27:49.202Z,85.33
2023-05-20T01:30:56.407Z,85.87
2023-05-20T01:34:00.424Z,86.13
2023-05-20T01:37:07.019Z,85.07
2023-05-20T01:40:14.173Z,86.17
2023-05-20T01:43:18.568Z,85.82
2023-05-20T01:46:21.093Z,86.08
2023-05-20T01:49:24.174Z,85.83
2023-05-20T01:52:26.639Z,85.41
2023-05-20T01:55:29.353Z,86.56
2023-05-20T01:58:31.735Z,86.79
2023-05-20T02:01:34.789Z,86.61
2023-05-20T02:04:37.447Z,86.70
2023-05-20T02:07:39.818Z,85.83
2023-05-20T02:10:42.471Z,85.98
2023-05-20T02:13:44.881Z,86.71
2023-05-20T02:16:48.090Z,86.78
2023-05-20T02:19:50.683Z,87.10
2023-05-20T02:22:54.520Z,86.15
2023-05-20T02:25:57.529Z,86.36
2023-05-20T02:29:00.309Z,86.55
2023-05-20T02:32:02.816Z,85.77
2023-05-20T02:35:05.876Z,86.14
2023-05-20T02:38:08.447Z,85.94
2023-05-20T02:41:12.272Z,85.14
2023-05-20T02:44:15.526Z,86.05
2023-05-20T02:47:18.433Z,86.33
2023-05-20T02:50:20.942Z,86.15
2023-05-20T02:53:23.946Z,86.62
2023-05-20T02:56:27.171Z,84.62
2023-05-20T02:59:30.023Z,86.39
2023-05-20T03:02:32.805Z,85.23
2023-05-20T03:05:40.253Z,85.85
2023-05-20T03:08:42.882Z,86.09
2023-05-20T03:11:47.670Z,84.79
2023-05-20T03:14:55.167Z,86.36
2023-05-20T03:17:58.704Z,85.39
2023-05-20T03:21:01.774Z,84.97
2023-05-20T03:24:05.881Z,84.92
2023-05-20T03:27:08.317Z,85.12
2023-05-20T03:30:11.316Z,85.52
2023-05-20T03:33:15.979Z,85.26
2023-05-20T03:36:18.876Z,85.38
2023-05-20T03:39:22.360Z,85.79
2023-05-20T03:42:26.156Z,85.45
2023-05-20T03:45:28.794Z,85.39
2023-05-20T03:48:32.381Z,85.73
2023-05-20T03:51:34.827Z,85.79
2023-05-20T03:54:38.028Z,85.75
2023-05-20T03:57:41.036Z,85.43
2023-05-20T04:00:43.830Z,85.52
2023-05-20T04:03:47.155Z,85.52
2023-05-20T04:06:50.070Z,85.89
2023-05-20T04:09:52.840Z,86.55
2023-05-20T04:12:55.310Z,85.97
2023-05-20T04:15:58.118Z,86.19
2023-05-20T04:19:01.151Z,86.89
2023-05-20T04:22:04.704Z,85.49
2023-05-20T04:25:07.881Z,85.19
2023-05-20T04:28:14.161Z,85.61
2023-05-20T04:31:18.746Z,85.87
2023-05-20T04:34:26.689Z,85.31
2023-05-20T04:37:32.124Z,85.75
2023-05-20T04:40:35.133Z,84.75
2023-05-20T04:43:39.685Z,84.86
2023-05-20T04:46:42.409Z,84.50
2023-05-20T04:49:45.803Z,84.45
2023-05-20T04:52:49.574Z,84.42
2023-05-20T04:55:57.035Z,84.34
2023-05-20T04:59:00.170Z,84.77
2023-05-20T05:02:02.621Z,85.69
2023-05-20T05:05:06.282Z,84.95
2023-05-20T05:08:11.615Z,86.25
2023-05-20T05:11:14.973Z,83.64
2023-05-20T05:14:17.528Z,84.05
2023-05-20T05:17:20.942Z,83.76
2023-05-20T05:20:23.788Z,83.33
2023-05-20T05:23:26.642Z,82.84
2023-05-20T05:26:29.146Z,82.56
2023-05-20T05:29:31.870Z,81.92
2023-05-20T05:32:35.605Z,82.76
2023-05-20T05:35:38.277Z,81.70
2023-05-20T05:38:47.525Z,82.40
2023-05-20T05:41:50.301Z,80.62
2023-05-20T05:44:53.857Z,80.05
2023-05-20T05:47:56.703Z,79.63
2023-05-20T05:51:00.846Z,80.07
2023-05-20T05:54:04.436Z,78.96
2023-05-20T05:57:09.928Z,79.29
2023-05-20T06:00:17.678Z,78.75
2023-05-20T06:03:20.142Z,81.56
2023-05-20T06:06:27.178Z,78.60
2023-05-20T06:09:34.343Z,78.50
2023-05-20T06:12:48.249Z,78.09
2023-05-20T06:15:51.082Z,77.61
2023-05-20T06:18:57.229Z,77.83
2023-05-20T06:21:59.738Z,73.83
2023-05-20T06:25:02.663Z,71.82
2023-05-20T06:28:05.720Z,70.44
2023-05-20T06:31:11.742Z,69.22
2023-05-20T06:34:14.556Z,68.41
2023-05-20T06:37:17.449Z,68.64
2023-05-20T06:40:20.386Z,66.49
2023-05-20T06:43:23.231Z,65.68
2023-05-20T06:46:27.597Z,65.28
2023-05-20T06:49:30.768Z,64.94
2023-05-20T06:52:33.248Z,64.37
2023-05-20T06:55:38.554Z,64.57
2023-05-20T06:58:41.858Z,63.58
2023-05-20T07:01:45.714Z,63.26
2023-05-20T07:04:49.500Z,61.71
2023-05-20T07:07:53.586Z,61.61
2023-05-20T07:10:57.289Z,62.03
2023-05-20T07:14:00.510Z,62.39
2023-05-20T07:17:06.001Z,61.98
2023-05-20T07:20:09.815Z,62.35
2023-05-20T07:23:14.406Z,60.72
2023-05-20T07:26:18.508Z,59.21
2023-05-20T07:29:20.960Z,58.59
2023-05-20T07:32:25.001Z,59.63
2023-05-20T07:35:27.597Z,58.89
2023-05-20T07:38:32.289Z,57.07
2023-05-20T07:41:35.081Z,57.85
2023-05-20T07:44:37.923Z,57.74
2023-05-20T07:47:40.957Z,58.43
2023-05-20T07:50:44.829Z,57.16
2023-05-20T07:53:47.638Z,57.61
2023-05-20T07:56:50.542Z,56.58
2023-05-20T07:59:53.720Z,55.84
2023-05-20T08:02:56.966Z,55.16
2023-05-20T08:06:00.292Z,56.08
2023-05-20T08:09:04.462Z,54.21
2023-05-20T08:12:08.053Z,52.67
2023-05-20T08:15:10.883Z,51.95
2023-05-20T08:18:13.733Z,53.56
2023-05-20T08:21:16.339Z,50.94
2023-05-20T08:24:19.483Z,50.69
2023-05-20T08:27:21.977Z,50.41
2023-05-20T08:30:24.785Z,52.54
2023-05-20T08:33:27.495Z,51.36
2023-05-20T08:36:30.196Z,50.92
2023-05-20T08:39:33.365Z,48.55
2023-05-20T08:42:36.441Z,48.20
2023-05-20T08:45:39.255Z,47.05
2023-05-20T08:48:42.532Z,47.62
2023-05-20T08:51:46.392Z,48.14
2023-05-20T08:54:50.673Z,47.76
2023-05-20T08:57:54.834Z,45.87
2023-05-20T09:00:58.897Z,46.00
2023-05-20T09:04:01.378Z,46.63
2023-05-20T09:07:04.944Z,45.87
2023-05-20T09:10:07.333Z,45.66
2023-05-20T09:13:11.506Z,45.66
2023-05-20T09:16:13.861Z,45.70
2023-05-20T09:19:16.597Z,44.74
2023-05-20T09:22:27.157Z,45.42
2023-05-20T09:25:30.154Z,44.46
2023-05-20T09:28:32.584Z,43.85
2023-05-20T09:31:36.515Z,43.22
2023-05-20T09:34:39.760Z,43.90
2023-05-20T09:37:44.575Z,41.53
2023-05-20T09:40:49.043Z,40.17
2023-05-20T09:43:54.428Z,40.51
2023-05-20T09:46:57.116Z,40.73
2023-05-20T09:50:00.682Z,41.23
2023-05-20T09:53:04.373Z,39.65
2023-05-20T09:56:07.267Z,38.74
2023-05-20T09:59:11.668Z,37.99
2023-05-20T10:02:14.689Z,38.01
2023-05-20T10:05:19.410Z,37.65
2023-05-20T10:08:28.438Z,38.20
2023-05-20T10:11:33.879Z,38.60
2023-05-20T10:14:42.257Z,36.65
2023-05-20T10:18:09.913Z,36.88
2023-05-20T10:21:17.218Z,34.55
2023-05-20T10:24:33.300Z,35.69
2023-05-20T10:27:46.587Z,36.80
2023-05-20T10:30:52.051Z,36.67
2023-05-20T10:33:54.778Z,35.89
2023-05-20T10:36:58.614Z,35.01
2023-05-20T10:40:06.173Z,36.83
2023-05-20T10:43:11.480Z,33.83
2023-05-20T10:46:32.661Z,35.86
2023-05-20T10:49:47.768Z,33.52
2023-05-20T10:52:50.308Z,32.84
2023-05-20T10:55:55.020Z,33.45
2023-05-20T10:58:57.747Z,34.57
2023-05-20T11:02:02.275Z,34.39
2023-05-20T11:05:06.546Z,34.06
2023-05-20T11:08:20.453Z,33.96
2023-05-20T11:11:30.769Z,34.28
2023-05-20T11:14:33.539Z,32.98
2023-05-20T11:17:35.941Z,34.04
2023-05-20T11:20:38.635Z,32.92
2023-05-20T11:23:41.633Z,33.52
2023-05-20T11:26:45.342Z,33.46
2023-05-20T11:29:50.752Z,33.83
2023-05-20T11:33:01.282Z,33.82
2023-05-20T11:36:08.593Z,32.99
2023-05-20T11:39:16.071Z,33.73
2023-05-20T11:42:18.430Z,33.77
2023-05-20T11:45:21.215Z,34.56
2023-05-20T11:48:24.637Z,33.48
2023-05-20T11:51:28.119Z,32.66
2023-05-20T11:54:35.705Z,32.34
2023-05-20T11:57:38.528Z,32.33
2023-05-20T12:00:50.590Z,33.25
2023-05-20T12:03:56.396Z,34.00
2023-05-20T12:06:58.862Z,32.82
2023-05-20T12:10:03.041Z,33.98
2023-05-20T12:13:08.873Z,34.13
2023-05-20T12:16:11.608Z,34.53
2023-05-20T12:19:14.091Z,35.23
2023-05-20T12:22:16.803Z,33.24
2023-05-20T12:25:20.478Z,33.65
2023-05-20T12:28:23.330Z,33.09
2023-05-20T12:31:26.164Z,34.03
2023-05-20T12:34:28.945Z,33.24
2023-05-20T12:37:31.466Z,33.90
2023-05-20T12:40:35.217Z,32.48
2023-05-20T12:43:38.275Z,32.50
2023-05-20T12:46:41.502Z,33.50
2023-05-20T12:49:43.954Z,34.29
2023-05-20T12:52:46.862Z,34.61
2023-05-20T12:55:49.355Z,33.63
2023-05-20T12:58:52.155Z,34.10
2023-05-20T13:01:54.586Z,35.40
2023-05-20T13:04:57.387Z,34.76
2023-05-20T13:07:59.922Z,35.62
2023-05-20T13:11:02.735Z,34.06
2023-05-20T13:14:05.159Z,33.98
2023-05-20T13:17:08.119Z,35.51
2023-05-20T13:20:11.150Z,34.62
2023-05-20T13:23:13.865Z,35.22
2023-05-20T13:26:18.170Z,34.32
2023-05-20T13:29:21.604Z,34.79
2023-05-20T13:32:24.092Z,35.48
2023-05-20T13:35:27.136Z,36.69
2023-05-20T13:38:29.558Z,36.70
2023-05-20T13:41:32.640Z,36.61
2023-05-20T13:44:35.060Z,36.36
2023-05-20T13:47:37.792Z,37.05
2023-05-20T13:50:40.300Z,37.22
2023-05-20T13:53:43.018Z,36.55
2023-05-20T13:56:45.413Z,38.49
2023-05-20T13:59:48.050Z,38.10
2023-05-20T14:02:50.701Z,36.80
2023-05-20T14:05:54.627Z,37.06
2023-05-20T14:08:57.182Z,36.69
2023-05-20T14:11:59.850Z,36.66
2023-05-20T14:15:02.205Z,37.74
2023-05-20T14:18:05.018Z,38.28
2023-05-20T14:21:07.472Z,37.35
2023-05-20T14:24:10.180Z,36.65
2023-05-20T14:27:14.214Z,35.73
2023-05-20T14:30:16.958Z,35.65
2023-05-20T14:33:19.648Z,34.82
2023-05-20T14:36:22.566Z,36.52
2023-05-20T14:39:24.906Z,35.59
2023-05-20T14:42:27.644Z,35.86
2023-05-20T14:45:30.089Z,35.12
2023-05-20T14:48:33.020Z,35.23
2023-05-20T14:51:35.500Z,35.65
2023-05-20T14:54:38.230Z,36.07
2023-05-20T14:57:40.666Z,36.40
2023-05-20T15:00:43.669Z,36.89
2023-05-20T15:03:46.208Z,36.25
2023-05-20T15:06:49.594Z,36.89
2023-05-20T15:09:52.018Z,36.11
2023-05-20T15:12:55.371Z,36.40
2023-05-20T15:15:58.071Z,36.24
2023-05-20T15:19:01.344Z,37.27
2023-05-20T15:22:04.060Z,38.02
2023-05-20T15:25:07.277Z,38.89
2023-05-20T15:28:09.764Z,39.69
2023-05-20T15:31:12.581Z,38.73
2023-05-20T15:34:15.081Z,38.78
2023-05-20T15:37:18.152Z,39.56
2023-05-20T15:40:21.833Z,39.49
2023-05-20T15:43:24.670Z,40.87
2023-05-20T15:46:27.268Z,40.49
2023-05-20T15:49:29.986Z,40.10
2023-05-20T15:52:32.510Z,40.32
2023-05-20T15:55:35.835Z,40.88
2023-05-20T15:58:38.610Z,41.49
2023-05-20T16:01:41.745Z,41.32
2023-05-20T16:04:44.494Z,41.86
2023-05-20T16:07:47.669Z,42.07
2023-05-20T16:10:51.034Z,42.22
2023-05-20T16:13:53.484Z,42.27
2023-05-20T16:16:56.235Z,42.36
2023-05-20T16:19:58.641Z,42.36
2023-05-20T16:23:01.631Z,42.21
2023-05-20T16:26:04.326Z,42.41
2023-05-20T16:29:07.371Z,42.13
2023-05-20T16:32:10.479Z,41.79
2023-05-20T16:35:14.824Z,41.40
2023-05-20T16:38:18.791Z,41.62
2023-05-20T16:41:24.773Z,41.48
2023-05-20T16:44:27.207Z,41.48
2023-05-20T16:47:30.124Z,41.54
2023-05-20T16:50:33.024Z,41.57
2023-05-20T16:53:36.057Z,41.63
2023-05-20T16:56:38.582Z,41.47
2023-05-20T16:59:41.923Z,41.64
2023-05-20T17:02:49.811Z,41.72
2023-05-20T17:05:52.546Z,41.86
2023-05-20T17:08:55.010Z,41.88
2023-05-20T17:11:58.293Z,42.21
2023-05-20T17:15:00.778Z,42.19
2023-05-20T17:18:04.160Z,42.12
2023-05-20T17:21:06.932Z,42.37
2023-05-20T17:24:09.648Z,42.75
2023-05-20T17:27:12.108Z,42.58
2023-05-20T17:30:14.898Z,42.79
2023-05-20T17:33:17.449Z,42.80
2023-05-20T17:36:22.670Z,43.03
2023-05-20T17:39:25.154Z,42.92
2023-05-20T17:42:27.929Z,43.10
2023-05-20T17:45:30.691Z,42.89
2023-05-20T17:48:33.437Z,42.79
2023-05-20T17:51:36.259Z,42.60
2023-05-20T17:54:38.966Z,42.76
2023-05-20T17:57:41.712Z,42.82
2023-05-20T18:00:44.514Z,42.97
2023-05-20T18:03:47.756Z,42.90
2023-05-20T18:06:50.239Z,42.90
2023-05-20T18:09:53.419Z,43.14
2023-05-20T18:12:55.836Z,42.94
2023-05-20T18:15:58.532Z,43.22
2023-05-20T18:19:01.004Z,43.30
2023-05-20T18:22:03.962Z,43.56
2023-05-20T18:25:07.335Z,43.62
2023-05-20T18:28:11.245Z,43.94
2023-05-20T18:31:13.861Z,44.08
2023-05-20T18:34:16.619Z,44.94
2023-05-20T18:37:19.020Z,45.57
2023-05-20T18:40:21.878Z,45.48
2023-05-20T18:43:24.298Z,45.73
2023-05-20T18:46:27.061Z,45.57
2023-05-20T18:49:29.541Z,45.67
2023-05-20T18:52:32.339Z,46.35
2023-05-20T18:55:34.880Z,46.32
2023-05-20T18:58:37.647Z,47.39
2023-05-20T19:01:40.668Z,47.08
2023-05-20T19:04:43.572Z,47.33
2023-05-20T19:07:46.088Z,47.62
2023-05-20T19:10:48.972Z,48.36
2023-05-20T19:13:51.368Z,48.32
2023-05-20T19:16:54.310Z,48.53
2023-05-20T19:19:56.837Z,48.49
2023-05-20T19:23:02.237Z,48.75
2023-05-20T19:26:04.898Z,49.66
2023-05-20T19:29:07.684Z,50.24
2023-05-20T19:32:10.245Z,49.60
2023-05-20T19:35:13.148Z,51.56
2023-05-20T19:38:15.980Z,51.00
2023-05-20T19:41:18.975Z,50.67
2023-05-20T19:44:23.376Z,51.27
2023-05-20T19:47:26.277Z,52.93
2023-05-20T19:50:28.775Z,51.78
2023-05-20T19:53:31.569Z,54.11
2023-05-20T19:56:39.632Z,54.11
2023-05-20T19:59:47.237Z,54.17
2023-05-20T20:02:49.971Z,55.15
2023-05-20T20:05:58.382Z,54.75
2023-05-20T20:09:01.289Z,56.16
2023-05-20T20:12:05.531Z,54.23
2023-05-20T20:15:09.120Z,54.71
2023-05-20T20:18:14.698Z,53.57
2023-05-20T20:21:18.146Z,56.15
2023-05-20T20:24:20.993Z,53.96
2023-05-20T20:27:26.291Z,54.48
2023-05-20T20:30:28.990Z,55.57
2023-05-20T20:33:31.953Z,55.72
2023-05-20T20:36:34.935Z,55.95
2023-05-20T20:39:37.424Z,54.65
2023-05-20T20:42:41.672Z,56.68
2023-05-20T20:45:47.000Z,54.54
2023-05-20T20:48:50.308Z,56.10
2023-05-20T20:51:55.353Z,55.58
2023-05-20T20:54:58.050Z,56.07
2023-05-20T20:58:03.392Z,56.25
2023-05-20T21:01:09.429Z,57.49
2023-05-20T21:04:14.579Z,57.89
2023-05-20T21:07:18.219Z,57.49
2023-05-20T21:10:21.298Z,57.22
2023-05-20T21:13:23.945Z,57.95
2023-05-20T21:16:28.600Z,57.43
2023-05-20T21:19:31.486Z,56.83
2023-05-20T21:22:33.975Z,58.02
2023-05-20T21:25:36.836Z,57.47
2023-05-20T21:28:39.531Z,57.79
2023-05-20T21:31:42.225Z,57.34
2023-05-20T21:34:44.599Z,58.48
2023-05-20T21:37:47.471Z,58.69
2023-05-20T21:40:50.165Z,57.85
2023-05-20T21:43:52.782Z,59.24
2023-05-20T21:46:55.462Z,59.28
2023-05-20T21:49:58.129Z,60.00
2023-05-20T21:53:00.441Z,60.41
2023-05-20T21:56:03.439Z,60.48
2023-05-20T21:59:05.900Z,60.03
2023-05-20T22:02:08.768Z,59.07
2023-05-20T22:05:15.322Z,59.99
2023-05-20T22:08:17.767Z,59.96
2023-05-20T22:11:21.702Z,60.46
2023-05-20T22:14:25.439Z,60.30
2023-05-20T22:17:28.308Z,59.52
2023-05-20T22:20:33.908Z,59.00
2023-05-20T22:23:36.553Z,59.29
2023-05-20T22:26:39.487Z,60.96
2023-05-20T22:29:42.151Z,59.35
2023-05-20T22:32:47.476Z,60.38
2023-05-20T22:35:51.423Z,60.59
2023-05-20T22:38:53.829Z,61.18
2023-05-20T22:41:56.495Z,61.32
2023-05-20T22:44:58.965Z,60.94
2023-05-20T22:48:02.131Z,60.49
2023-05-20T22:51:05.871Z,62.38
2023-05-20T22:54:09.668Z,61.07
2023-05-20T22:57:12.241Z,61.83
2023-05-20T23:00:15.529Z,61.49
2023-05-20T23:03:17.941Z,62.56
2023-05-20T23:06:22.759Z,62.92
2023-05-20T23:09:25.216Z,63.31
2023-05-20T23:12:28.195Z,61.68
2023-05-20T23:15:30.786Z,62.97
2023-05-20T23:18:33.456Z,61.43
2023-05-20T23:21:37.339Z,61.75
2023-05-20T23:24:40.061Z,62.36
2023-05-20T23:27:42.453Z,62.21
2023-05-20T23:30:45.102Z,63.28
2023-05-20T23:33:47.541Z,63.49
2023-05-20T23:36:52.937Z,62.11
2023-05-20T23:39:55.398Z,62.88
2023-05-20T23:42:58.089Z,63.03
2023-05-20T23:46:00.911Z,62.35
2023-05-20T23:49:03.577Z,62.82
2023-05-20T23:52:06.139Z,61.95
2023-05-20T23:55:10.359Z,62.81
2023-05-20T23:58:12.817Z,63.05
